Terminal Aerodrome Forecast
Issued by NWS Cleveland, OH

Home | Current Version | Previous Version | Text Only | Print | Product List | Glossary Off
Versions: 1 2 3 4 5 6 7 8 9 10 11 12 13 14 15 16

004
FTUS41 KCLE 191502 AAA
TAFMFD
TAF AMD
KMFD 191502Z 1915/2012 24009KT P6SM SCT035
     FM191600 25010G18KT P6SM VCSH BKN045
      TEMPO 1920/1924 5SM -SHRA BKN030
     FM200100 24006KT P6SM SCT050 BKN100=

USA.gov is the U.S. government's official web portal to all federal, state and local government web resources and services.